Time;durP1;ratioP1;P1;durP2;ratioP2;P2;SDS_P1;SDS_P2;PMS_P1;PMS_P2;Temp;Humidity;BMP_temperature;BMP_pressure;BME280_temperature;BME280_humidity;BME280_pressure;Samples;Min_cycle;Max_cycle;Signal;HPM_P1;HPM_P2
2024/02/26 00:01:25;;;;;;;4.00;3.17;;;;;;;-146.29;100.00;59205.81;5027185;28;20477;-68
2024/02/26 00:03:52;;;;;;;4.27;3.10;;;;;;;-146.29;100.00;59205.81;5029062;28;20175;-68
2024/02/26 00:06:18;;;;;;;3.27;2.60;;;;;;;-146.29;100.00;59205.81;5033212;28;20224;-68
2024/02/26 00:08:44;;;;;;;5.43;3.30;;;;;;;-146.29;100.00;59205.81;5026586;28;20589;-70
2024/02/26 00:11:09;;;;;;;3.40;2.87;;;;;;;-146.29;100.00;59205.81;5027505;28;20537;-70
2024/02/26 00:13:35;;;;;;;7.70;5.80;;;;;;;-146.29;100.00;59205.81;5031414;28;20195;-68
2024/02/26 00:16:01;;;;;;;3.50;2.53;;;;;;;-146.29;100.00;59205.81;5026252;28;20210;-67
2024/02/26 00:18:26;;;;;;;5.73;4.40;;;;;;;-146.29;100.00;59205.81;5027105;28;20426;-70
2024/02/26 00:20:52;;;;;;;4.73;3.80;;;;;;;-146.29;100.00;59205.81;5027540;28;20258;-71
2024/02/26 00:23:17;;;;;;;4.90;3.83;;;;;;;-146.29;100.00;59205.81;5036736;28;20175;-68
2024/02/26 00:25:43;;;;;;;2.90;2.63;;;;;;;-146.29;100.00;59205.81;5034448;28;20757;-69
2024/02/26 00:28:09;;;;;;;2.57;2.33;;;;;;;-146.29;100.00;59205.81;5028279;28;20234;-69
2024/02/26 00:30:35;;;;;;;3.70;2.90;;;;;;;-146.29;100.00;59205.81;5031088;28;20179;-72
2024/02/26 00:33:00;;;;;;;4.17;2.70;;;;;;;-146.29;100.00;59205.81;5026415;28;20438;-69
2024/02/26 00:35:26;;;;;;;8.03;3.87;;;;;;;-146.29;100.00;59205.81;5026006;28;20231;-68
2024/02/26 00:37:51;;;;;;;3.40;3.03;;;;;;;-146.29;100.00;59205.81;5025003;28;20189;-70
2024/02/26 00:40:17;;;;;;;3.10;2.67;;;;;;;-146.29;100.00;59205.81;5030868;28;20188;-70
2024/02/26 00:42:45;;;;;;;2.70;2.40;;;;;;;-146.29;100.00;59205.81;5023420;28;20190;-68
2024/02/26 00:45:12;;;;;;;7.50;3.17;;;;;;;-146.29;100.00;59205.81;5026279;28;20298;-69
2024/02/26 00:47:37;;;;;;;3.93;3.10;;;;;;;-146.29;100.00;59205.81;5027421;28;20807;-69
2024/02/26 00:50:03;;;;;;;3.90;3.00;;;;;;;-146.29;100.00;59205.81;5032438;28;20520;-69
2024/02/26 00:52:28;;;;;;;2.70;2.47;;;;;;;-146.29;100.00;59205.81;5037243;28;20190;-69
2024/02/26 00:54:53;;;;;;;2.60;2.10;;;;;;;-146.29;100.00;59205.81;5031218;28;20199;-69
2024/02/26 00:57:19;;;;;;;3.53;2.83;;;;;;;-146.29;100.00;59205.81;5029587;28;20568;-68
2024/02/26 00:59:44;;;;;;;3.03;2.73;;;;;;;-146.29;100.00;59205.81;5026523;28;20256;-70
2024/02/26 01:02:10;;;;;;;5.80;2.80;;;;;;;-146.29;100.00;59205.81;5028031;28;20187;-68
2024/02/26 01:04:35;;;;;;;5.80;4.17;;;;;;;-146.29;100.00;59205.81;5036455;28;20229;-68
2024/02/26 01:07:01;;;;;;;3.27;2.97;;;;;;;-146.29;100.00;59205.81;5033172;28;20210;-69
2024/02/26 01:09:26;;;;;;;3.70;3.40;;;;;;;-146.29;100.00;59205.81;5029330;28;20192;-68
2024/02/26 01:11:51;;;;;;;4.93;2.90;;;;;;;-146.29;100.00;59205.81;5034080;28;20254;-71
2024/02/26 01:14:17;;;;;;;3.47;3.17;;;;;;;-146.29;100.00;59205.81;5034304;28;20187;-69
2024/02/26 01:16:42;;;;;;;3.03;2.70;;;;;;;-146.29;100.00;59205.81;5031199;28;20600;-69
2024/02/26 01:19:08;;;;;;;3.20;2.90;;;;;;;-146.29;100.00;59205.81;5031039;28;20259;-67
2024/02/26 01:21:33;;;;;;;4.63;2.97;;;;;;;-146.29;100.00;59205.81;5027834;28;20199;-68
2024/02/26 01:23:59;;;;;;;3.10;2.70;;;;;;;-146.29;100.00;59205.81;5031623;28;20187;-67
2024/02/26 01:26:24;;;;;;;2.83;2.60;;;;;;;-146.29;100.00;59205.81;5026730;28;20406;-68
2024/02/26 01:28:50;;;;;;;3.17;2.80;;;;;;;-146.29;100.00;59205.81;5028100;28;20259;-70
2024/02/26 01:31:15;;;;;;;6.40;3.47;;;;;;;-146.29;100.00;59205.81;5027272;28;20191;-69
2024/02/26 01:33:41;;;;;;;5.00;2.70;;;;;;;-146.29;100.00;59205.81;5034523;28;20223;-68
2024/02/26 01:36:06;;;;;;;4.30;3.00;;;;;;;-146.29;100.00;59205.81;5031753;28;20203;-67
2024/02/26 01:38:32;;;;;;;10.93;2.73;;;;;;;-146.29;100.00;59205.81;5030939;28;20840;-66
2024/02/26 01:40:57;;;;;;;2.67;2.40;;;;;;;-146.29;100.00;59205.81;5029105;28;20204;-69
2024/02/26 01:43:22;;;;;;;3.47;2.40;;;;;;;-146.29;100.00;59205.81;5012258;28;20749;-66
2024/02/26 01:45:48;;;;;;;4.10;2.90;;;;;;;-146.29;100.00;59205.81;5043279;28;20299;-67
2024/02/26 01:48:13;;;;;;;4.40;2.40;;;;;;;-146.29;100.00;59205.81;5027819;28;20182;-67
2024/02/26 01:50:40;;;;;;;4.43;2.90;;;;;;;-146.29;100.00;59205.81;5025318;28;20176;-68
2024/02/26 01:53:06;;;;;;;3.53;3.00;;;;;;;-146.29;100.00;59205.81;5036220;28;20180;-67
2024/02/26 01:55:32;;;;;;;3.10;2.80;;;;;;;-146.29;100.00;59205.81;5030336;28;20462;-68
2024/02/26 01:57:58;;;;;;;2.73;2.53;;;;;;;-146.29;100.00;59205.81;5029995;28;20945;-70
2024/02/26 02:00:24;;;;;;;4.47;2.87;;;;;;;-146.29;100.00;59205.81;5029086;28;20199;-70
2024/02/26 02:02:50;;;;;;;3.20;2.90;;;;;;;-146.29;100.00;59205.81;5029981;28;20414;-69
2024/02/26 02:05:17;;;;;;;7.10;3.40;;;;;;;-146.29;100.00;59205.81;5029640;28;20200;-68
2024/02/26 02:07:43;;;;;;;4.30;2.77;;;;;;;-146.29;100.00;59205.81;5029282;28;20462;-70
2024/02/26 02:10:09;;;;;;;3.30;2.60;;;;;;;-146.29;100.00;59205.81;5038763;28;20457;-71
2024/02/26 02:12:35;;;;;;;3.27;2.63;;;;;;;-146.29;100.00;59205.81;5032351;28;20680;-70
2024/02/26 02:15:01;;;;;;;3.27;2.40;;;;;;;-146.29;100.00;59205.81;5030447;28;20473;-70
2024/02/26 02:17:27;;;;;;;2.70;2.10;;;;;;;-146.29;100.00;59205.81;5029482;28;20467;-70
2024/02/26 02:19:53;;;;;;;2.57;2.37;;;;;;;-146.29;100.00;59205.81;5029111;28;20180;-69
2024/02/26 02:22:18;;;;;;;3.77;2.40;;;;;;;-146.29;100.00;59205.81;5030204;28;20426;-70
2024/02/26 02:24:45;;;;;;;4.03;3.10;;;;;;;-146.29;100.00;59205.81;5029863;28;20201;-70
2024/02/26 02:27:10;;;;;;;3.27;2.40;;;;;;;-146.29;100.00;59205.81;5041022;28;20668;-69
2024/02/26 02:29:36;;;;;;;5.23;3.40;;;;;;;-146.29;100.00;59205.81;5031643;28;20492;-70
2024/02/26 02:32:02;;;;;;;4.87;2.37;;;;;;;-146.29;100.00;59205.81;5029449;28;20188;-69
2024/02/26 02:34:28;;;;;;;3.13;2.10;;;;;;;-146.29;100.00;59205.81;5041349;28;20436;-69
2024/02/26 02:36:54;;;;;;;8.63;2.80;;;;;;;-146.29;100.00;59205.81;5040999;28;20549;-69
2024/02/26 02:39:20;;;;;;;3.30;2.70;;;;;;;-146.29;100.00;59205.81;5034711;28;20183;-69
2024/02/26 02:41:46;;;;;;;2.20;2.00;;;;;;;-146.29;100.00;59205.81;5028673;28;20422;-70
2024/02/26 02:44:11;;;;;;;3.80;2.10;;;;;;;-146.29;100.00;59205.81;5029220;28;20465;-67
2024/02/26 02:46:37;;;;;;;3.00;2.17;;;;;;;-146.29;100.00;59205.81;5031558;28;20172;-69
2024/02/26 02:49:02;;;;;;;2.30;2.10;;;;;;;-146.29;100.00;59205.81;5040299;28;20199;-70
2024/02/26 02:51:28;;;;;;;2.30;2.07;;;;;;;-146.29;100.00;59205.81;5032859;28;20238;-69
2024/02/26 02:53:53;;;;;;;1.93;1.80;;;;;;;-146.29;100.00;59205.81;5034662;28;20193;-69
2024/02/26 02:56:19;;;;;;;2.90;2.07;;;;;;;-146.29;100.00;59205.81;5033687;28;20294;-72
2024/02/26 02:58:44;;;;;;;1.87;1.40;;;;;;;-146.29;100.00;59205.81;5029921;28;20184;-68
2024/02/26 03:01:10;;;;;;;3.30;2.10;;;;;;;-146.29;100.00;59205.81;5032912;28;20191;-68
2024/02/26 03:03:37;;;;;;;2.60;2.20;;;;;;;-146.29;100.00;59205.81;5037373;28;20237;-68
2024/02/26 03:06:02;;;;;;;1.47;1.37;;;;;;;-146.29;100.00;59205.81;5028496;28;20204;-69
2024/02/26 03:08:28;;;;;;;2.70;1.90;;;;;;;-146.29;100.00;59205.81;5029546;28;20436;-68
2024/02/26 03:10:54;;;;;;;2.70;2.13;;;;;;;-146.29;100.00;59205.81;5028222;28;20184;-70
2024/02/26 03:13:19;;;;;;;2.97;2.23;;;;;;;-146.29;100.00;59205.81;5028048;28;20959;-70
2024/02/26 03:15:45;;;;;;;7.27;2.07;;;;;;;-146.29;100.00;59205.81;5032378;28;20210;-70
2024/02/26 03:18:10;;;;;;;3.57;1.97;;;;;;;-146.29;100.00;59205.81;5015246;28;20175;-70
2024/02/26 03:20:37;;;;;;;2.57;2.13;;;;;;;-146.29;100.00;59205.81;5032116;28;20321;-69
2024/02/26 03:23:02;;;;;;;2.33;2.13;;;;;;;-146.29;100.00;59205.81;5043497;28;20211;-69
2024/02/26 03:25:28;;;;;;;2.47;2.10;;;;;;;-146.29;100.00;59205.81;5029090;28;20481;-67
2024/02/26 03:27:53;;;;;;;2.97;2.67;;;;;;;-146.29;100.00;59205.81;5029280;28;20509;-68
2024/02/26 03:30:19;;;;;;;2.70;2.50;;;;;;;-146.29;100.00;59205.81;5034059;28;20176;-69
2024/02/26 03:32:44;;;;;;;2.80;2.50;;;;;;;-146.29;100.00;59205.81;5031812;28;20183;-68
2024/02/26 03:35:10;;;;;;;2.17;1.73;;;;;;;-146.29;100.00;59205.81;5036091;28;20195;-67
2024/02/26 03:37:35;;;;;;;2.70;2.10;;;;;;;-146.29;100.00;59205.81;5038170;28;20175;-68
2024/02/26 03:40:01;;;;;;;2.83;1.90;;;;;;;-146.29;100.00;59205.81;5027946;28;20187;-68
2024/02/26 03:42:27;;;;;;;2.17;1.97;;;;;;;-146.29;100.00;59205.81;5032619;28;20188;-67
2024/02/26 03:44:52;;;;;;;3.07;2.43;;;;;;;-146.29;100.00;59205.81;5029278;28;20200;-69
2024/02/26 03:47:17;;;;;;;3.00;2.30;;;;;;;-146.29;100.00;59205.81;5033817;28;20184;-69
2024/02/26 03:49:43;;;;;;;2.20;2.00;;;;;;;-146.29;100.00;59205.81;5028663;28;20187;-67
2024/02/26 03:52:09;;;;;;;4.07;2.60;;;;;;;-146.29;100.00;59205.81;5033695;28;20270;-69
2024/02/26 03:54:35;;;;;;;2.43;2.23;;;;;;;-146.29;100.00;59205.81;5035323;28;20199;-68
2024/02/26 03:57:00;;;;;;;2.63;2.17;;;;;;;-146.29;100.00;59205.81;5011182;28;20469;-71
2024/02/26 03:59:26;;;;;;;2.50;2.30;;;;;;;-146.29;100.00;59205.81;5036669;28;20214;-68
2024/02/26 04:01:52;;;;;;;2.70;2.00;;;;;;;-146.29;100.00;59205.81;5026656;28;20188;-70
2024/02/26 04:04:17;;;;;;;2.50;2.30;;;;;;;-146.29;100.00;59205.81;5027002;28;20190;-68
2024/02/26 04:06:46;;;;;;;2.10;2.00;;;;;;;-146.29;100.00;59205.81;5028513;28;20661;-69
2024/02/26 04:09:14;;;;;;;9.13;2.13;;;;;;;-146.29;100.00;59205.81;5028925;28;20187;-68
2024/02/26 04:11:39;;;;;;;2.17;1.90;;;;;;;-146.29;100.00;59205.81;5018962;28;20432;-69
2024/02/26 04:14:08;;;;;;;2.40;2.10;;;;;;;-146.29;100.00;59205.81;5034510;28;20525;-69
2024/02/26 04:16:35;;;;;;;4.37;2.30;;;;;;;-146.29;100.00;59205.81;5029495;28;20208;-69
2024/02/26 04:19:00;;;;;;;2.23;1.60;;;;;;;-146.29;100.00;59205.81;5028469;28;20425;-69
2024/02/26 04:21:26;;;;;;;2.50;1.83;;;;;;;-146.29;100.00;59205.81;5028712;28;20848;-68
2024/02/26 04:23:54;;;;;;;2.30;2.10;;;;;;;-146.29;100.00;59205.81;5041957;28;20187;-71
2024/02/26 04:26:21;;;;;;;2.20;1.80;;;;;;;-146.29;100.00;59205.81;5024155;28;20211;-70
2024/02/26 04:28:46;;;;;;;4.83;1.80;;;;;;;-146.29;100.00;59205.81;5035150;28;20450;-70
2024/02/26 04:31:12;;;;;;;1.70;1.60;;;;;;;-146.29;100.00;59205.81;5028193;28;20509;-70
2024/02/26 04:33:37;;;;;;;1.67;1.57;;;;;;;-146.29;100.00;59205.81;5051827;28;20555;-70
2024/02/26 04:36:03;;;;;;;1.80;1.70;;;;;;;-146.29;100.00;59205.81;5028098;28;20211;-68
2024/02/26 04:38:28;;;;;;;3.07;1.67;;;;;;;-146.29;100.00;59205.81;5028098;28;20179;-69
2024/02/26 04:40:54;;;;;;;1.83;1.40;;;;;;;-146.29;100.00;59205.81;5023871;28;20216;-70
2024/02/26 04:43:19;;;;;;;1.90;1.30;;;;;;;-146.29;100.00;59205.81;5034873;28;20237;-68
2024/02/26 04:45:45;;;;;;;1.47;1.30;;;;;;;-146.29;100.00;59205.81;5038292;28;20215;-67
2024/02/26 04:48:10;;;;;;;1.73;1.30;;;;;;;-146.29;100.00;59205.81;5027960;28;20237;-68
2024/02/26 04:50:36;;;;;;;1.97;1.80;;;;;;;-146.29;100.00;59205.81;5026469;28;20567;-68
2024/02/26 04:53:01;;;;;;;5.13;1.97;;;;;;;-146.29;100.00;59205.81;5029450;28;20192;-69
2024/02/26 04:55:26;;;;;;;2.90;2.20;;;;;;;-146.29;100.00;59205.81;5025886;28;20212;-69
2024/02/26 04:57:52;;;;;;;3.40;2.50;;;;;;;-146.29;100.00;59205.81;5029618;28;20781;-68
2024/02/26 05:00:17;;;;;;;3.30;2.60;;;;;;;-146.29;100.00;59205.81;5034056;28;20183;-69
2024/02/26 05:02:43;;;;;;;3.13;2.50;;;;;;;-146.29;100.00;59205.81;5027330;28;20267;-69
2024/02/26 05:05:08;;;;;;;3.13;2.83;;;;;;;-146.29;100.00;59205.81;5035335;28;20281;-68
2024/02/26 05:07:39;;;;;;;5.30;2.70;;;;;;;-146.29;100.00;59205.81;5026867;28;20198;-70
2024/02/26 05:10:05;;;;;;;3.70;2.73;;;;;;;-146.29;100.00;59205.81;5012308;28;20184;-69
2024/02/26 05:12:31;;;;;;;3.10;2.80;;;;;;;-146.29;100.00;59205.81;5035410;28;20430;-69
2024/02/26 05:14:56;;;;;;;5.83;2.60;;;;;;;-146.29;100.00;59205.81;5027209;28;20207;-69
2024/02/26 05:17:21;;;;;;;9.23;2.97;;;;;;;-146.29;100.00;59205.81;5018113;28;20194;-70
2024/02/26 05:19:47;;;;;;;3.40;2.50;;;;;;;-146.29;100.00;59205.81;5026816;28;20666;-69
2024/02/26 05:22:12;;;;;;;7.50;3.20;;;;;;;-146.29;100.00;59205.81;5027226;28;20560;-67
2024/02/26 05:24:38;;;;;;;3.60;2.73;;;;;;;-146.29;100.00;59205.81;5034645;28;20245;-67
2024/02/26 05:27:04;;;;;;;3.10;2.80;;;;;;;-146.29;100.00;59205.81;5027689;28;20636;-69
2024/02/26 05:29:29;;;;;;;4.17;2.70;;;;;;;-146.29;100.00;59205.81;5028110;28;20950;-70
2024/02/26 05:31:55;;;;;;;4.70;2.93;;;;;;;-146.29;100.00;59205.81;5038871;28;20867;-71
2024/02/26 05:34:20;;;;;;;2.90;2.50;;;;;;;-146.29;100.00;59205.81;5038925;28;20190;-72
2024/02/26 05:36:46;;;;;;;5.87;2.80;;;;;;;-146.29;100.00;59205.81;5036794;28;20203;-69
2024/02/26 05:39:11;;;;;;;2.90;2.70;;;;;;;-146.29;100.00;59205.81;5030658;28;20176;-66
2024/02/26 05:41:37;;;;;;;2.83;2.30;;;;;;;-146.29;100.00;59205.81;5041548;28;20203;-68
2024/02/26 05:44:03;;;;;;;10.23;2.70;;;;;;;-146.29;100.00;59205.81;5030759;28;20556;-69
2024/02/26 05:46:29;;;;;;;5.13;3.17;;;;;;;-146.29;100.00;59205.81;5030770;28;20206;-67
2024/02/26 05:48:54;;;;;;;3.50;2.77;;;;;;;-146.29;100.00;59205.81;5030147;28;20422;-69
2024/02/26 05:51:20;;;;;;;3.47;3.17;;;;;;;-146.29;100.00;59205.81;5038862;28;20253;-67
2024/02/26 05:53:46;;;;;;;9.17;3.80;;;;;;;-146.29;100.00;59205.81;5030169;28;20186;-70
2024/02/26 05:56:12;;;;;;;6.10;4.63;;;;;;;-146.29;100.00;59205.81;5030269;28;20215;-67
2024/02/26 05:58:38;;;;;;;4.20;3.77;;;;;;;-146.29;100.00;59205.81;5031137;28;20441;-70
2024/02/26 06:01:03;;;;;;;3.67;3.17;;;;;;;-146.29;100.00;59205.81;5003614;28;20186;-70
2024/02/26 06:03:29;;;;;;;3.47;2.77;;;;;;;-146.29;100.00;59205.81;5030418;28;20184;-68
2024/02/26 06:05:54;;;;;;;5.40;4.50;;;;;;;-146.29;100.00;59205.81;5030772;28;20295;-69
2024/02/26 06:08:20;;;;;;;4.90;4.13;;;;;;;-146.29;100.00;59205.81;5029288;28;20184;-69
2024/02/26 06:10:45;;;;;;;5.50;4.03;;;;;;;-146.29;100.00;59205.81;5029639;28;20617;-70
2024/02/26 06:13:11;;;;;;;4.93;3.60;;;;;;;-146.29;100.00;59205.81;5028661;28;20179;-70
2024/02/26 06:15:36;;;;;;;3.53;3.20;;;;;;;-146.29;100.00;59205.81;5031350;28;20200;-69
2024/02/26 06:18:02;;;;;;;5.37;3.90;;;;;;;-146.29;100.00;59205.81;5034933;28;20719;-69
2024/02/26 06:20:27;;;;;;;9.40;3.80;;;;;;;-146.29;100.00;59205.81;5036567;28;20202;-68
2024/02/26 06:22:53;;;;;;;4.63;3.30;;;;;;;-146.29;100.00;59205.81;5031406;28;20207;-69
2024/02/26 06:25:18;;;;;;;4.87;3.70;;;;;;;-146.29;100.00;59205.81;5035292;28;20196;-71
2024/02/26 06:27:44;;;;;;;5.63;3.50;;;;;;;-146.29;100.00;59205.81;5029861;28;20211;-69
2024/02/26 06:30:11;;;;;;;11.30;6.30;;;;;;;-146.29;100.00;59205.81;5028139;28;20262;-69
2024/02/26 06:32:37;;;;;;;7.83;4.83;;;;;;;-146.29;100.00;59205.81;5029412;28;20183;-70
2024/02/26 06:35:06;;;;;;;4.20;3.80;;;;;;;-146.29;100.00;59205.81;5029349;28;20446;-69
2024/02/26 06:37:33;;;;;;;7.80;4.00;;;;;;;-146.29;100.00;59205.81;5037384;28;20449;-70
2024/02/26 06:39:59;;;;;;;4.87;3.83;;;;;;;-146.29;100.00;59205.81;5032940;28;20418;-71
2024/02/26 06:42:24;;;;;;;4.90;3.10;;;;;;;-146.29;100.00;59205.81;5029010;28;20457;-70
2024/02/26 06:44:50;;;;;;;8.00;3.57;;;;;;;-146.29;100.00;59205.81;5029548;28;20525;-68
2024/02/26 06:47:15;;;;;;;5.40;4.03;;;;;;;-146.29;100.00;59205.81;5030432;28;20263;-67
2024/02/26 06:49:41;;;;;;;5.50;4.23;;;;;;;-146.29;100.00;59205.81;5011010;28;20705;-68
2024/02/26 06:52:06;;;;;;;5.00;4.20;;;;;;;-146.29;100.00;59205.81;5030409;28;20263;-67
2024/02/26 06:54:32;;;;;;;5.00;4.50;;;;;;;-146.29;100.00;59205.81;5031030;28;20192;-68
2024/02/26 06:56:57;;;;;;;9.03;4.20;;;;;;;-146.29;100.00;59205.81;5028629;28;20623;-69
2024/02/26 06:59:24;;;;;;;4.57;3.90;;;;;;;-146.29;100.00;59205.81;5045041;28;20645;-69
2024/02/26 07:01:49;;;;;;;6.47;5.10;;;;;;;-146.29;100.00;59205.81;5029458;28;20546;-68
2024/02/26 07:04:14;;;;;;;6.37;4.80;;;;;;;-146.29;100.00;59205.81;5028959;28;20437;-68
2024/02/26 07:06:41;;;;;;;6.27;4.53;;;;;;;-146.29;100.00;59205.81;5029941;28;20561;-67
2024/02/26 07:09:06;;;;;;;7.87;5.00;;;;;;;-146.29;100.00;59205.81;5028159;28;20207;-68
2024/02/26 07:11:32;;;;;;;7.73;4.87;;;;;;;-146.29;100.00;59205.81;5029257;28;20415;-67
2024/02/26 07:13:57;;;;;;;8.40;5.33;;;;;;;-146.29;100.00;59205.81;5033584;28;20271;-69
2024/02/26 07:16:23;;;;;;;7.53;5.23;;;;;;;-146.29;100.00;59205.81;5031299;28;20203;-70
2024/02/26 07:18:48;;;;;;;7.97;4.70;;;;;;;-146.29;100.00;59205.81;5030827;28;20180;-69
2024/02/26 07:21:14;;;;;;;8.43;7.43;;;;;;;-146.29;100.00;59205.81;5031356;28;20190;-66
2024/02/26 07:23:39;;;;;;;9.43;6.63;;;;;;;-146.29;100.00;59205.81;5030602;28;20188;-69
2024/02/26 07:26:05;;;;;;;6.53;5.10;;;;;;;-146.29;100.00;59205.81;5041083;28;20199;-68
2024/02/26 07:28:31;;;;;;;7.00;4.90;;;;;;;-146.29;100.00;59205.81;5034152;28;20187;-66
2024/02/26 07:30:56;;;;;;;7.20;5.90;;;;;;;-146.29;100.00;59205.81;5033043;28;20192;-67
2024/02/26 07:33:22;;;;;;;10.40;8.53;;;;;;;-146.29;100.00;59205.81;5029466;28;20704;-68
2024/02/26 07:35:47;;;;;;;9.67;7.73;;;;;;;-146.29;100.00;59205.81;5028567;28;20287;-69
2024/02/26 07:38:13;;;;;;;9.87;7.00;;;;;;;-146.29;100.00;59205.81;5029223;28;20192;-70
2024/02/26 07:40:39;;;;;;;8.90;7.07;;;;;;;-146.29;100.00;59205.81;5029058;28;20187;-67
2024/02/26 07:43:04;;;;;;;7.17;5.47;;;;;;;-146.29;100.00;59205.81;5029913;28;20469;-69
2024/02/26 07:45:30;;;;;;;9.60;6.57;;;;;;;-146.29;100.00;59205.81;5035724;28;20257;-69
2024/02/26 07:47:55;;;;;;;6.83;4.10;;;;;;;-146.29;100.00;59205.81;5029833;28;20184;-69
2024/02/26 07:50:21;;;;;;;6.40;4.10;;;;;;;-146.29;100.00;59205.81;5031391;28;20184;-70
2024/02/26 07:52:46;;;;;;;3.90;3.20;;;;;;;-146.29;100.00;59205.81;5026766;28;20329;-69
2024/02/26 07:55:12;;;;;;;3.13;2.83;;;;;;;-146.29;100.00;59205.81;5028655;28;20203;-69
2024/02/26 07:57:38;;;;;;;3.43;3.00;;;;;;;-146.29;100.00;59205.81;5033578;28;20192;-69
2024/02/26 08:00:07;;;;;;;3.90;3.10;;;;;;;-146.29;100.00;59205.81;5042240;28;20210;-71
2024/02/26 08:02:33;;;;;;;4.20;2.87;;;;;;;-146.29;100.00;59205.81;5037403;28;20426;-68
2024/02/26 08:04:59;;;;;;;2.83;2.50;;;;;;;-146.29;100.00;59205.81;5028701;28;21017;-69
2024/02/26 08:07:24;;;;;;;4.57;3.20;;;;;;;-146.29;100.00;59205.81;5026879;28;20526;-69
2024/02/26 08:09:50;;;;;;;5.73;2.17;;;;;;;-146.29;100.00;59205.81;5026096;28;20195;-69
2024/02/26 08:12:16;;;;;;;2.50;2.30;;;;;;;-146.29;100.00;59205.81;5027517;28;20223;-69
2024/02/26 08:14:43;;;;;;;2.90;2.70;;;;;;;-146.29;100.00;59205.81;5012768;28;20274;-69
2024/02/26 08:17:09;;;;;;;2.97;2.67;;;;;;;-146.29;100.00;59205.81;5027450;28;20486;-70
2024/02/26 08:19:35;;;;;;;2.50;2.23;;;;;;;-146.29;100.00;59205.81;5026779;28;20521;-70
2024/02/26 08:22:01;;;;;;;11.70;9.03;;;;;;;-146.29;100.00;59205.81;5013957;28;20940;-71
2024/02/26 08:24:26;;;;;;;12.40;10.10;;;;;;;-146.29;100.00;59205.81;5028680;28;20426;-70
2024/02/26 08:26:52;;;;;;;7.73;3.53;;;;;;;-146.29;100.00;59205.81;5027618;28;20187;-70
2024/02/26 08:29:17;;;;;;;4.40;2.83;;;;;;;-146.29;100.00;59205.81;5027356;28;21091;-69
2024/02/26 08:31:43;;;;;;;6.93;4.53;;;;;;;-146.29;100.00;59205.81;5025250;28;20213;-68
2024/02/26 08:34:09;;;;;;;3.10;2.80;;;;;;;-146.29;100.00;59205.81;5026462;28;20191;-70
2024/02/26 08:36:34;;;;;;;7.30;4.60;;;;;;;-146.29;100.00;59205.81;5027296;28;20469;-70
2024/02/26 08:39:00;;;;;;;3.73;2.90;;;;;;;-146.29;100.00;59205.81;5025637;28;20212;-70
2024/02/26 08:41:26;;;;;;;3.40;3.00;;;;;;;-146.29;100.00;59205.81;5028730;28;20210;-69
2024/02/26 08:43:51;;;;;;;3.77;3.27;;;;;;;-146.29;100.00;59205.81;5027643;28;20641;-68
2024/02/26 08:46:16;;;;;;;11.60;4.10;;;;;;;-146.29;100.00;59205.81;5027283;28;20200;-68
2024/02/26 08:48:42;;;;;;;3.60;3.30;;;;;;;-146.29;100.00;59205.81;5037551;28;20180;-68
2024/02/26 08:51:08;;;;;;;5.60;3.37;;;;;;;-146.29;100.00;59205.81;5030415;28;20675;-70
2024/02/26 08:53:34;;;;;;;3.97;3.17;;;;;;;-146.29;100.00;59205.81;5035021;28;20226;-69
2024/02/26 08:55:59;;;;;;;3.17;2.80;;;;;;;-146.29;100.00;59205.81;5026549;28;20539;-70
2024/02/26 08:58:26;;;;;;;3.43;3.13;;;;;;;-146.29;100.00;59205.81;5024373;28;20422;-68
2024/02/26 09:00:52;;;;;;;3.17;2.80;;;;;;;-146.29;100.00;59205.81;5026806;28;20179;-70
2024/02/26 09:03:17;;;;;;;4.00;2.80;;;;;;;-146.29;100.00;59205.81;5034211;28;20723;-69
2024/02/26 09:05:43;;;;;;;3.20;2.90;;;;;;;-146.29;100.00;59205.81;5029961;28;20199;-68
2024/02/26 09:08:08;;;;;;;3.00;2.63;;;;;;;-146.29;100.00;59205.81;5010525;28;20186;-69
2024/02/26 09:10:34;;;;;;;3.23;2.70;;;;;;;-146.29;100.00;59205.81;5029280;28;20187;-70
2024/02/26 09:12:59;;;;;;;3.63;2.70;;;;;;;-146.29;100.00;59205.81;4988847;28;1115011;-70
2024/02/26 09:15:25;;;;;;;3.53;2.67;;;;;;;-146.29;100.00;59205.81;5031861;28;20331;-68
2024/02/26 09:17:51;;;;;;;3.73;3.33;;;;;;;-146.29;100.00;59205.81;5030765;28;20183;-69
2024/02/26 09:20:20;;;;;;;4.20;3.13;;;;;;;-146.29;100.00;59205.81;5027504;28;20187;-67
2024/02/26 09:22:48;;;;;;;8.37;2.63;;;;;;;-146.29;100.00;59205.81;5030770;28;20435;-71
2024/02/26 09:25:15;;;;;;;3.30;3.00;;;;;;;-146.29;100.00;59205.81;5029522;28;20525;-70
2024/02/26 09:27:43;;;;;;;6.67;3.63;;;;;;;-146.29;100.00;59205.81;5041334;28;20414;-70
2024/02/26 09:30:10;;;;;;;10.80;4.27;;;;;;;-146.29;100.00;59205.81;5003922;28;20431;-70
2024/02/26 09:32:36;;;;;;;7.97;3.00;;;;;;;-146.29;100.00;59205.81;5030908;28;20434;-70
2024/02/26 09:35:02;;;;;;;3.60;2.40;;;;;;;-146.29;100.00;59205.81;5043421;28;20458;-71
2024/02/26 09:37:27;;;;;;;4.73;3.80;;;;;;;-146.29;100.00;59205.81;5032604;28;20426;-70
2024/02/26 09:39:53;;;;;;;7.80;5.27;;;;;;;-146.29;100.00;59205.81;5037216;28;20438;-69
2024/02/26 09:42:18;;;;;;;3.90;3.50;;;;;;;-146.29;100.00;59205.81;5042063;28;20266;-69
2024/02/26 09:44:44;;;;;;;4.87;2.90;;;;;;;-146.29;100.00;59205.81;5042907;28;20180;-70
2024/02/26 09:47:11;;;;;;;4.00;2.93;;;;;;;-146.29;100.00;59205.81;5010643;28;20420;-70
2024/02/26 09:49:37;;;;;;;5.80;2.70;;;;;;;-146.29;100.00;59205.81;5028904;28;20184;-69
2024/02/26 09:52:04;;;;;;;5.07;3.07;;;;;;;-146.29;100.00;59205.81;5031397;28;20972;-70
2024/02/26 09:54:31;;;;;;;4.37;2.80;;;;;;;-146.29;100.00;59205.81;5031673;28;20192;-71
2024/02/26 09:57:07;;;;;;;9.07;6.20;;;;;;;-146.29;100.00;59205.81;5031597;28;20873;-71
2024/02/26 09:59:40;;;;;;;5.40;3.60;;;;;;;-146.29;100.00;59205.81;5029506;28;20458;-70
2024/02/26 10:02:08;;;;;;;4.57;2.60;;;;;;;-146.29;100.00;59205.81;5030187;28;20871;-71
2024/02/26 10:04:34;;;;;;;9.80;6.07;;;;;;;-146.29;100.00;59205.81;5034510;28;20420;-69
2024/02/26 10:07:01;;;;;;;6.83;3.40;;;;;;;-146.29;100.00;59205.81;4995199;28;20426;-69
2024/02/26 10:09:26;;;;;;;3.50;2.43;;;;;;;-146.29;100.00;59205.81;5034688;28;20192;-70
2024/02/26 10:11:52;;;;;;;4.00;2.53;;;;;;;-146.29;100.00;59205.81;5031345;28;20430;-71
2024/02/26 10:14:17;;;;;;;4.70;2.50;;;;;;;-146.29;100.00;59205.81;5035809;28;20192;-71
2024/02/26 10:16:43;;;;;;;3.93;2.60;;;;;;;-146.29;100.00;59205.81;5013710;28;20686;-71
2024/02/26 10:19:09;;;;;;;4.70;2.57;;;;;;;-146.29;100.00;59205.81;5036575;28;20184;-70
2024/02/26 10:21:36;;;;;;;13.83;7.70;;;;;;;-146.29;100.00;59205.81;5034137;28;20282;-69
2024/02/26 10:24:01;;;;;;;15.40;9.40;;;;;;;-146.29;100.00;59205.81;5031469;28;21024;-72
2024/02/26 10:26:27;;;;;;;6.13;4.53;;;;;;;-146.29;100.00;59205.81;5032617;28;20431;-68
2024/02/26 10:28:52;;;;;;;5.53;4.30;;;;;;;-146.29;100.00;59205.81;5047726;28;20656;-70
2024/02/26 10:31:18;;;;;;;13.03;9.30;;;;;;;-146.29;100.00;59205.81;5036448;28;20326;-70
2024/02/26 10:33:44;;;;;;;13.60;7.90;;;;;;;-146.29;100.00;59205.81;5027309;28;20190;-70
2024/02/26 10:36:10;;;;;;;3.87;3.50;;;;;;;-146.29;100.00;59205.81;5031736;28;20207;-70
2024/02/26 10:38:36;;;;;;;7.53;5.60;;;;;;;-146.29;100.00;59205.81;5031262;28;20198;-68
2024/02/26 10:41:03;;;;;;;6.40;4.90;;;;;;;-146.29;100.00;59205.81;5031434;28;20245;-71
2024/02/26 10:43:28;;;;;;;8.10;4.67;;;;;;;-146.29;100.00;59205.81;5032360;28;20427;-71
2024/02/26 10:45:57;;;;;;;6.60;4.73;;;;;;;-146.29;100.00;59205.81;5032348;28;21153;-70
2024/02/26 10:48:23;;;;;;;6.57;4.23;;;;;;;-146.29;100.00;59205.81;5015645;28;20211;-70
2024/02/26 10:50:50;;;;;;;7.33;3.80;;;;;;;-146.29;100.00;59205.81;5035003;28;20489;-70
2024/02/26 10:53:29;;;;;;;3.87;3.03;;;;;;;-146.29;100.00;59205.81;5034962;28;20179;-71
2024/02/26 10:55:57;;;;;;;3.43;3.13;;;;;;;-146.29;100.00;59205.81;5037006;28;20462;-70
2024/02/26 10:58:24;;;;;;;5.03;3.00;;;;;;;-146.29;100.00;59205.81;5030001;28;20461;-70
2024/02/26 11:00:53;;;;;;;5.77;4.33;;;;;;;-146.29;100.00;59205.81;5015006;28;20435;-69
2024/02/26 11:03:20;;;;;;;5.50;3.47;;;;;;;-146.29;100.00;59205.81;5037787;28;20434;-69